sensor_id;sensor_type;location;lat;lon;timestamp;temperature;humidity
32787;DHT22;19139;49.372;8.580;2022-07-01T00:00:22;18.10;99.90
32787;DHT22;19139;49.372;8.580;2022-07-01T00:02:49;18.30;99.90
32787;DHT22;19139;49.372;8.580;2022-07-01T00:05:15;18.30;99.90
32787;DHT22;19139;49.372;8.580;2022-07-01T00:07:42;18.30;99.90
32787;DHT22;19139;49.372;8.580;2022-07-01T00:10:09;18.10;99.90
32787;DHT22;19139;49.372;8.580;2022-07-01T00:12:41;18.30;99.90
32787;DHT22;19139;49.372;8.580;2022-07-01T00:15:07;18.40;99.90
32787;DHT22;19139;49.372;8.580;2022-07-01T00:17:35;18.20;99.90
32787;DHT22;19139;49.372;8.580;2022-07-01T00:20:03;18.20;99.90
32787;DHT22;19139;49.372;8.580;2022-07-01T00:22:35;18.20;99.90
32787;DHT22;19139;49.372;8.580;2022-07-01T00:25:03;18.30;99.90
32787;DHT22;19139;49.372;8.580;2022-07-01T00:27:30;18.40;99.90
32787;DHT22;19139;49.372;8.580;2022-07-01T00:29:56;18.40;99.90
32787;DHT22;19139;49.372;8.580;2022-07-01T00:32:23;18.30;99.90
32787;DHT22;19139;49.372;8.580;2022-07-01T00:34:54;18.40;99.90
32787;DHT22;19139;49.372;8.580;2022-07-01T00:37:26;18.30;99.90
32787;DHT22;19139;49.372;8.580;2022-07-01T00:39:58;18.30;99.90
32787;DHT22;19139;49.372;8.580;2022-07-01T00:42:24;18.20;99.90
32787;DHT22;19139;49.372;8.580;2022-07-01T00:44:51;18.50;99.90
32787;DHT22;19139;49.372;8.580;2022-07-01T00:47:18;18.30;99.90
32787;DHT22;19139;49.372;8.580;2022-07-01T00:49:45;18.20;99.90
32787;DHT22;19139;49.372;8.580;2022-07-01T00:52:12;18.20;99.90
32787;DHT22;19139;49.372;8.580;2022-07-01T00:54:39;18.40;99.90
32787;DHT22;19139;49.372;8.580;2022-07-01T00:57:11;18.50;99.90
32787;DHT22;19139;49.372;8.580;2022-07-01T00:59:39;18.50;99.90
32787;DHT22;19139;49.372;8.580;2022-07-01T01:02:07;18.20;99.90
32787;DHT22;19139;49.372;8.580;2022-07-01T01:04:39;18.40;99.90
32787;DHT22;19139;49.372;8.580;2022-07-01T01:07:07;18.00;99.90
32787;DHT22;19139;49.372;8.580;2022-07-01T01:09:39;18.10;99.90
32787;DHT22;19139;49.372;8.580;2022-07-01T01:12:06;18.20;99.90
32787;DHT22;19139;49.372;8.580;2022-07-01T01:14:45;18.00;99.90
32787;DHT22;19139;49.372;8.580;2022-07-01T01:17:12;18.00;99.90
32787;DHT22;19139;49.372;8.580;2022-07-01T01:19:41;17.90;99.90
32787;DHT22;19139;49.372;8.580;2022-07-01T01:22:09;18.00;99.90
32787;DHT22;19139;49.372;8.580;2022-07-01T01:24:36;17.80;99.90
32787;DHT22;19139;49.372;8.580;2022-07-01T01:27:06;17.90;99.90
32787;DHT22;19139;49.372;8.580;2022-07-01T01:29:38;17.90;99.90
32787;DHT22;19139;49.372;8.580;2022-07-01T01:32:06;17.90;99.90
32787;DHT22;19139;49.372;8.580;2022-07-01T01:34:34;18.00;99.90
32787;DHT22;19139;49.372;8.580;2022-07-01T01:37:04;18.10;99.90
32787;DHT22;19139;49.372;8.580;2022-07-01T01:39:30;18.10;99.90
32787;DHT22;19139;49.372;8.580;2022-07-01T01:41:57;17.90;99.90
32787;DHT22;19139;49.372;8.580;2022-07-01T01:44:29;17.90;99.90
32787;DHT22;19139;49.372;8.580;2022-07-01T01:46:56;17.90;99.90
32787;DHT22;19139;49.372;8.580;2022-07-01T01:49:22;17.80;99.90
32787;DHT22;19139;49.372;8.580;2022-07-01T01:51:56;18.00;99.90
32787;DHT22;19139;49.372;8.580;2022-07-01T01:54:24;17.90;99.90
32787;DHT22;19139;49.372;8.580;2022-07-01T01:56:56;17.80;99.90
32787;DHT22;19139;49.372;8.580;2022-07-01T01:59:27;17.60;99.90
32787;DHT22;19139;49.372;8.580;2022-07-01T02:01:54;17.80;99.90
32787;DHT22;19139;49.372;8.580;2022-07-01T02:04:21;17.90;99.90
32787;DHT22;19139;49.372;8.580;2022-07-01T02:06:54;17.70;99.90
32787;DHT22;19139;49.372;8.580;2022-07-01T02:09:21;17.80;99.90
32787;DHT22;19139;49.372;8.580;2022-07-01T02:11:48;17.70;99.90
32787;DHT22;19139;49.372;8.580;2022-07-01T02:14:14;17.50;99.90
32787;DHT22;19139;49.372;8.580;2022-07-01T02:16:41;17.80;99.90
32787;DHT22;19139;49.372;8.580;2022-07-01T02:19:07;17.50;99.90
32787;DHT22;19139;49.372;8.580;2022-07-01T02:21:34;17.60;99.90
32787;DHT22;19139;49.372;8.580;2022-07-01T02:24:00;17.80;99.90
32787;DHT22;19139;49.372;8.580;2022-07-01T02:26:27;17.80;99.90
32787;DHT22;19139;49.372;8.580;2022-07-01T02:28:54;17.70;99.90
32787;DHT22;19139;49.372;8.580;2022-07-01T02:31:25;17.20;99.90
32787;DHT22;19139;49.372;8.580;2022-07-01T02:33:52;17.30;99.90
32787;DHT22;19139;49.372;8.580;2022-07-01T02:36:19;17.40;99.90
32787;DHT22;19139;49.372;8.580;2022-07-01T02:38:45;17.40;99.90
32787;DHT22;19139;49.372;8.580;2022-07-01T02:41:12;17.30;99.90
32787;DHT22;19139;49.372;8.580;2022-07-01T02:43:38;17.30;99.90
32787;DHT22;19139;49.372;8.580;2022-07-01T02:46:05;17.40;99.90
32787;DHT22;19139;49.372;8.580;2022-07-01T02:48:36;17.40;99.90
32787;DHT22;19139;49.372;8.580;2022-07-01T02:51:03;17.70;99.90
32787;DHT22;19139;49.372;8.580;2022-07-01T02:53:30;17.70;99.90
32787;DHT22;19139;49.372;8.580;2022-07-01T02:55:56;17.70;99.90
32787;DHT22;19139;49.372;8.580;2022-07-01T02:58:29;17.60;99.90
32787;DHT22;19139;49.372;8.580;2022-07-01T03:00:55;17.60;99.90
32787;DHT22;19139;49.372;8.580;2022-07-01T03:03:22;17.10;99.90
32787;DHT22;19139;49.372;8.580;2022-07-01T03:05:49;17.30;99.90
32787;DHT22;19139;49.372;8.580;2022-07-01T03:08:18;17.20;99.90
32787;DHT22;19139;49.372;8.580;2022-07-01T03:10:45;17.20;99.90
32787;DHT22;19139;49.372;8.580;2022-07-01T03:13:11;17.20;99.90
32787;DHT22;19139;49.372;8.580;2022-07-01T03:15:38;17.40;99.90
32787;DHT22;19139;49.372;8.580;2022-07-01T03:18:05;17.40;99.90
32787;DHT22;19139;49.372;8.580;2022-07-01T03:20:31;17.30;99.90
32787;DHT22;19139;49.372;8.580;2022-07-01T03:22:58;17.20;99.90
32787;DHT22;19139;49.372;8.580;2022-07-01T03:25:25;17.50;99.90
32787;DHT22;19139;49.372;8.580;2022-07-01T03:27:51;17.40;99.90
32787;DHT22;19139;49.372;8.580;2022-07-01T03:30:18;17.60;99.90
32787;DHT22;19139;49.372;8.580;2022-07-01T03:32:45;17.60;99.90
32787;DHT22;19139;49.372;8.580;2022-07-01T03:35:12;17.40;99.90
32787;DHT22;19139;49.372;8.580;2022-07-01T03:37:57;17.30;99.90
32787;DHT22;19139;49.372;8.580;2022-07-01T03:40:24;17.10;99.90
32787;DHT22;19139;49.372;8.580;2022-07-01T03:42:55;17.20;99.90
32787;DHT22;19139;49.372;8.580;2022-07-01T03:45:27;17.10;99.90
32787;DHT22;19139;49.372;8.580;2022-07-01T03:47:59;17.00;99.90
32787;DHT22;19139;49.372;8.580;2022-07-01T03:50:26;17.30;99.90
32787;DHT22;19139;49.372;8.580;2022-07-01T03:52:53;17.10;99.90
32787;DHT22;19139;49.372;8.580;2022-07-01T03:55:38;16.80;99.90
32787;DHT22;19139;49.372;8.580;2022-07-01T03:58:05;16.90;99.90
32787;DHT22;19139;49.372;8.580;2022-07-01T04:00:33;17.00;99.90
32787;DHT22;19139;49.372;8.580;2022-07-01T04:03:03;17.20;99.90
32787;DHT22;19139;49.372;8.580;2022-07-01T04:05:36;17.00;99.90
32787;DHT22;19139;49.372;8.580;2022-07-01T04:08:08;17.10;99.90
32787;DHT22;19139;49.372;8.580;2022-07-01T04:10:38;17.00;99.90
32787;DHT22;19139;49.372;8.580;2022-07-01T04:13:05;16.90;99.90
32787;DHT22;19139;49.372;8.580;2022-07-01T04:15:52;16.90;99.90
32787;DHT22;19139;49.372;8.580;2022-07-01T04:18:19;17.20;99.90
32787;DHT22;19139;49.372;8.580;2022-07-01T04:20:47;17.10;99.90
32787;DHT22;19139;49.372;8.580;2022-07-01T04:23:33;16.80;99.90
32787;DHT22;19139;49.372;8.580;2022-07-01T04:26:01;17.10;99.90
32787;DHT22;19139;49.372;8.580;2022-07-01T04:28:47;17.30;99.90
32787;DHT22;19139;49.372;8.580;2022-07-01T04:31:14;17.20;99.90
32787;DHT22;19139;49.372;8.580;2022-07-01T04:33:41;17.00;99.90
32787;DHT22;19139;49.372;8.580;2022-07-01T04:36:08;16.90;99.90
32787;DHT22;19139;49.372;8.580;2022-07-01T04:38:34;17.00;99.90
32787;DHT22;19139;49.372;8.580;2022-07-01T04:41:01;17.20;99.90
32787;DHT22;19139;49.372;8.580;2022-07-01T04:43:46;17.10;99.90
32787;DHT22;19139;49.372;8.580;2022-07-01T04:46:13;17.30;99.90
32787;DHT22;19139;49.372;8.580;2022-07-01T04:48:40;17.50;99.90
32787;DHT22;19139;49.372;8.580;2022-07-01T04:51:12;17.40;99.90
32787;DHT22;19139;49.372;8.580;2022-07-01T04:53:39;17.40;99.90
32787;DHT22;19139;49.372;8.580;2022-07-01T04:56:05;17.50;99.90
32787;DHT22;19139;49.372;8.580;2022-07-01T04:58:32;17.50;99.90
32787;DHT22;19139;49.372;8.580;2022-07-01T05:00:59;17.40;99.90
32787;DHT22;19139;49.372;8.580;2022-07-01T05:03:25;17.40;99.90
32787;DHT22;19139;49.372;8.580;2022-07-01T05:05:57;17.40;99.90
32787;DHT22;19139;49.372;8.580;2022-07-01T05:08:23;17.40;99.90
32787;DHT22;19139;49.372;8.580;2022-07-01T05:10:50;17.40;99.90
32787;DHT22;19139;49.372;8.580;2022-07-01T05:13:17;17.30;99.90
32787;DHT22;19139;49.372;8.580;2022-07-01T05:15:49;17.30;99.90
32787;DHT22;19139;49.372;8.580;2022-07-01T05:18:20;17.30;99.90
32787;DHT22;19139;49.372;8.580;2022-07-01T05:21:06;17.10;99.90
32787;DHT22;19139;49.372;8.580;2022-07-01T05:23:53;17.40;99.90
32787;DHT22;19139;49.372;8.580;2022-07-01T05:26:22;17.50;99.90
32787;DHT22;19139;49.372;8.580;2022-07-01T05:28:49;17.40;99.90
32787;DHT22;19139;49.372;8.580;2022-07-01T05:31:16;17.60;99.90
32787;DHT22;19139;49.372;8.580;2022-07-01T05:33:43;17.50;99.90
32787;DHT22;19139;49.372;8.580;2022-07-01T05:36:10;17.60;99.90
32787;DHT22;19139;49.372;8.580;2022-07-01T05:38:37;17.40;99.90
32787;DHT22;19139;49.372;8.580;2022-07-01T05:41:05;17.50;99.90
32787;DHT22;19139;49.372;8.580;2022-07-01T05:43:36;17.50;99.90
32787;DHT22;19139;49.372;8.580;2022-07-01T05:46:03;17.50;99.90
32787;DHT22;19139;49.372;8.580;2022-07-01T05:48:30;17.20;99.90
32787;DHT22;19139;49.372;8.580;2022-07-01T05:50:57;17.50;99.90
32787;DHT22;19139;49.372;8.580;2022-07-01T05:53:23;17.60;99.90
32787;DHT22;19139;49.372;8.580;2022-07-01T05:55:50;17.40;99.90
32787;DHT22;19139;49.372;8.580;2022-07-01T05:58:17;17.60;99.90
32787;DHT22;19139;49.372;8.580;2022-07-01T06:00:48;17.40;99.90
32787;DHT22;19139;49.372;8.580;2022-07-01T06:03:15;17.50;99.90
32787;DHT22;19139;49.372;8.580;2022-07-01T06:05:47;17.60;99.90
32787;DHT22;19139;49.372;8.580;2022-07-01T06:08:13;17.40;99.90
32787;DHT22;19139;49.372;8.580;2022-07-01T06:10:40;17.30;99.90
32787;DHT22;19139;49.372;8.580;2022-07-01T06:13:12;17.70;99.90
32787;DHT22;19139;49.372;8.580;2022-07-01T06:15:39;17.50;99.90
32787;DHT22;19139;49.372;8.580;2022-07-01T06:18:05;17.40;99.90
32787;DHT22;19139;49.372;8.580;2022-07-01T06:20:32;17.20;99.90
32787;DHT22;19139;49.372;8.580;2022-07-01T06:22:59;17.40;99.90
32787;DHT22;19139;49.372;8.580;2022-07-01T06:25:30;17.50;99.90
32787;DHT22;19139;49.372;8.580;2022-07-01T06:27:57;17.40;99.90
32787;DHT22;19139;49.372;8.580;2022-07-01T06:30:28;17.70;99.90
32787;DHT22;19139;49.372;8.580;2022-07-01T06:32:55;17.70;99.90
32787;DHT22;19139;49.372;8.580;2022-07-01T06:35:22;17.60;99.90
32787;DHT22;19139;49.372;8.580;2022-07-01T06:37:48;17.60;99.90
32787;DHT22;19139;49.372;8.580;2022-07-01T06:40:15;17.70;99.90
32787;DHT22;19139;49.372;8.580;2022-07-01T06:42:41;17.70;99.90
32787;DHT22;19139;49.372;8.580;2022-07-01T06:45:09;17.70;99.90
32787;DHT22;19139;49.372;8.580;2022-07-01T06:47:40;17.70;99.90
32787;DHT22;19139;49.372;8.580;2022-07-01T06:50:07;17.40;99.90
32787;DHT22;19139;49.372;8.580;2022-07-01T06:52:34;17.40;99.90
32787;DHT22;19139;49.372;8.580;2022-07-01T06:55:01;17.60;99.90
32787;DHT22;19139;49.372;8.580;2022-07-01T06:57:28;17.50;99.90
32787;DHT22;19139;49.372;8.580;2022-07-01T06:59:55;17.50;99.90
32787;DHT22;19139;49.372;8.580;2022-07-01T07:02:22;17.60;99.90
32787;DHT22;19139;49.372;8.580;2022-07-01T07:04:54;17.60;99.90
32787;DHT22;19139;49.372;8.580;2022-07-01T07:07:26;17.10;99.90
32787;DHT22;19139;49.372;8.580;2022-07-01T07:09:53;17.30;99.90
32787;DHT22;19139;49.372;8.580;2022-07-01T07:12:19;17.00;99.90
32787;DHT22;19139;49.372;8.580;2022-07-01T07:14:46;17.30;99.90
32787;DHT22;19139;49.372;8.580;2022-07-01T07:17:13;17.30;99.90
32787;DHT22;19139;49.372;8.580;2022-07-01T07:19:40;17.10;99.90
32787;DHT22;19139;49.372;8.580;2022-07-01T07:22:06;17.30;99.90
32787;DHT22;19139;49.372;8.580;2022-07-01T07:24:33;17.10;99.90
32787;DHT22;19139;49.372;8.580;2022-07-01T07:27:00;17.30;99.90
32787;DHT22;19139;49.372;8.580;2022-07-01T07:29:32;17.20;99.90
32787;DHT22;19139;49.372;8.580;2022-07-01T07:31:59;17.30;99.90
32787;DHT22;19139;49.372;8.580;2022-07-01T07:34:25;17.50;99.90
32787;DHT22;19139;49.372;8.580;2022-07-01T07:36:52;17.70;99.90
32787;DHT22;19139;49.372;8.580;2022-07-01T07:39:19;17.90;99.90
32787;DHT22;19139;49.372;8.580;2022-07-01T07:41:51;17.70;99.90
32787;DHT22;19139;49.372;8.580;2022-07-01T07:44:17;17.70;99.90
32787;DHT22;19139;49.372;8.580;2022-07-01T07:46:44;17.80;99.90
32787;DHT22;19139;49.372;8.580;2022-07-01T07:49:11;17.80;99.90
32787;DHT22;19139;49.372;8.580;2022-07-01T07:51:37;17.80;99.90
32787;DHT22;19139;49.372;8.580;2022-07-01T07:54:04;17.50;99.90
32787;DHT22;19139;49.372;8.580;2022-07-01T07:56:31;17.50;99.90
32787;DHT22;19139;49.372;8.580;2022-07-01T07:58:58;17.80;99.90
32787;DHT22;19139;49.372;8.580;2022-07-01T08:01:25;17.50;99.90
32787;DHT22;19139;49.372;8.580;2022-07-01T08:03:54;17.70;99.90
32787;DHT22;19139;49.372;8.580;2022-07-01T08:06:21;17.90;99.90
32787;DHT22;19139;49.372;8.580;2022-07-01T08:08:49;17.40;99.90
32787;DHT22;19139;49.372;8.580;2022-07-01T08:11:21;17.60;99.90
32787;DHT22;19139;49.372;8.580;2022-07-01T08:13:48;17.50;99.90
32787;DHT22;19139;49.372;8.580;2022-07-01T08:16:14;17.60;99.90
32787;DHT22;19139;49.372;8.580;2022-07-01T08:18:41;17.50;99.90
32787;DHT22;19139;49.372;8.580;2022-07-01T08:21:08;17.90;99.90
32787;DHT22;19139;49.372;8.580;2022-07-01T08:23:39;17.80;99.90
32787;DHT22;19139;49.372;8.580;2022-07-01T08:26:06;18.00;99.90
32787;DHT22;19139;49.372;8.580;2022-07-01T08:28:33;17.70;99.90
32787;DHT22;19139;49.372;8.580;2022-07-01T08:31:00;17.60;99.90
32787;DHT22;19139;49.372;8.580;2022-07-01T08:33:27;17.70;99.90
32787;DHT22;19139;49.372;8.580;2022-07-01T08:35:53;17.90;99.90
32787;DHT22;19139;49.372;8.580;2022-07-01T08:38:20;17.60;99.90
32787;DHT22;19139;49.372;8.580;2022-07-01T08:40:47;17.80;99.90
32787;DHT22;19139;49.372;8.580;2022-07-01T08:43:14;17.90;99.90
32787;DHT22;19139;49.372;8.580;2022-07-01T08:45:41;17.60;99.90
32787;DHT22;19139;49.372;8.580;2022-07-01T08:48:08;17.70;99.90
32787;DHT22;19139;49.372;8.580;2022-07-01T08:50:37;17.60;99.90
32787;DHT22;19139;49.372;8.580;2022-07-01T08:53:06;17.50;99.90
32787;DHT22;19139;49.372;8.580;2022-07-01T08:55:33;17.50;99.90
32787;DHT22;19139;49.372;8.580;2022-07-01T08:58:21;17.60;99.90
32787;DHT22;19139;49.372;8.580;2022-07-01T09:00:48;17.90;99.90
32787;DHT22;19139;49.372;8.580;2022-07-01T09:03:15;17.70;99.90
32787;DHT22;19139;49.372;8.580;2022-07-01T09:05:50;17.70;99.90
32787;DHT22;19139;49.372;8.580;2022-07-01T09:08:18;17.60;99.90
32787;DHT22;19139;49.372;8.580;2022-07-01T09:10:45;17.80;99.90
32787;DHT22;19139;49.372;8.580;2022-07-01T09:13:17;17.80;99.90
32787;DHT22;19139;49.372;8.580;2022-07-01T09:15:46;17.70;99.90
32787;DHT22;19139;49.372;8.580;2022-07-01T09:18:17;17.90;99.90
32787;DHT22;19139;49.372;8.580;2022-07-01T09:20:51;17.80;99.90
32787;DHT22;19139;49.372;8.580;2022-07-01T09:23:18;17.80;99.90
32787;DHT22;19139;49.372;8.580;2022-07-01T09:25:47;17.70;99.90
32787;DHT22;19139;49.372;8.580;2022-07-01T09:28:17;17.60;99.90
32787;DHT22;19139;49.372;8.580;2022-07-01T09:30:48;17.90;99.90
32787;DHT22;19139;49.372;8.580;2022-07-01T09:33:18;17.60;99.90
32787;DHT22;19139;49.372;8.580;2022-07-01T09:35:48;18.00;99.90
32787;DHT22;19139;49.372;8.580;2022-07-01T09:38:20;17.70;99.90
32787;DHT22;19139;49.372;8.580;2022-07-01T09:41:03;18.00;99.90
32787;DHT22;19139;49.372;8.580;2022-07-01T09:43:35;18.00;99.90
32787;DHT22;19139;49.372;8.580;2022-07-01T09:51:04;18.20;99.90
32787;DHT22;19139;49.372;8.580;2022-07-01T09:53:37;18.00;99.90
32787;DHT22;19139;49.372;8.580;2022-07-01T09:56:05;18.30;99.90
32787;DHT22;19139;49.372;8.580;2022-07-01T09:58:32;18.40;99.90
32787;DHT22;19139;49.372;8.580;2022-07-01T10:00:59;18.70;99.90
32787;DHT22;19139;49.372;8.580;2022-07-01T10:03:27;18.50;99.90
32787;DHT22;19139;49.372;8.580;2022-07-01T10:05:57;18.80;99.90
32787;DHT22;19139;49.372;8.580;2022-07-01T10:14:12;18.90;99.90
32787;DHT22;19139;49.372;8.580;2022-07-01T10:16:40;18.80;99.90
32787;DHT22;19139;49.372;8.580;2022-07-01T10:22:30;18.90;99.90
32787;DHT22;19139;49.372;8.580;2022-07-01T10:25:34;19.60;99.90
32787;DHT22;19139;49.372;8.580;2022-07-01T10:28:43;19.30;99.90
32787;DHT22;19139;49.372;8.580;2022-07-01T10:31:12;19.30;99.90
32787;DHT22;19139;49.372;8.580;2022-07-01T10:33:46;19.40;99.90
32787;DHT22;19139;49.372;8.580;2022-07-01T10:45:09;19.20;99.90
32787;DHT22;19139;49.372;8.580;2022-07-01T10:47:37;19.40;99.90
32787;DHT22;19139;49.372;8.580;2022-07-01T10:50:05;19.50;99.90
32787;DHT22;19139;49.372;8.580;2022-07-01T10:52:35;19.70;99.90
32787;DHT22;19139;49.372;8.580;2022-07-01T10:55:09;20.10;99.90
32787;DHT22;19139;49.372;8.580;2022-07-01T10:57:40;20.10;99.90
32787;DHT22;19139;49.372;8.580;2022-07-01T11:02:36;20.10;99.90
32787;DHT22;19139;49.372;8.580;2022-07-01T11:05:10;19.60;99.90
32787;DHT22;19139;49.372;8.580;2022-07-01T11:07:43;19.50;99.90
32787;DHT22;19139;49.372;8.580;2022-07-01T11:10:17;19.40;99.90
32787;DHT22;19139;49.372;8.580;2022-07-01T11:12:44;19.60;99.90
32787;DHT22;19139;49.372;8.580;2022-07-01T11:15:15;20.00;99.90
32787;DHT22;19139;49.372;8.580;2022-07-01T11:17:48;20.00;99.90
32787;DHT22;19139;49.372;8.580;2022-07-01T11:20:16;20.20;99.90
32787;DHT22;19139;49.372;8.580;2022-07-01T11:22:52;20.50;99.90
32787;DHT22;19139;49.372;8.580;2022-07-01T11:25:22;20.60;99.90
32787;DHT22;19139;49.372;8.580;2022-07-01T11:27:50;20.80;99.90
32787;DHT22;19139;49.372;8.580;2022-07-01T11:30:23;21.10;99.90
32787;DHT22;19139;49.372;8.580;2022-07-01T11:32:55;21.40;99.90
32787;DHT22;19139;49.372;8.580;2022-07-01T11:35:27;21.20;99.90
32787;DHT22;19139;49.372;8.580;2022-07-01T11:38:15;21.10;99.90
32787;DHT22;19139;49.372;8.580;2022-07-01T11:41:04;21.00;99.90
32787;DHT22;19139;49.372;8.580;2022-07-01T11:43:37;21.00;99.90
32787;DHT22;19139;49.372;8.580;2022-07-01T11:46:06;20.90;99.90
32787;DHT22;19139;49.372;8.580;2022-07-01T11:51:08;20.70;99.90
32787;DHT22;19139;49.372;8.580;2022-07-01T11:53:35;20.80;99.90
32787;DHT22;19139;49.372;8.580;2022-07-01T11:56:03;20.70;99.90
32787;DHT22;19139;49.372;8.580;2022-07-01T11:58:52;20.80;99.90
32787;DHT22;19139;49.372;8.580;2022-07-01T12:03:49;20.90;99.90
32787;DHT22;19139;49.372;8.580;2022-07-01T12:06:19;20.90;99.90
32787;DHT22;19139;49.372;8.580;2022-07-01T12:08:47;20.90;99.90
32787;DHT22;19139;49.372;8.580;2022-07-01T12:11:16;20.80;99.90
32787;DHT22;19139;49.372;8.580;2022-07-01T12:13:44;20.90;99.90
32787;DHT22;19139;49.372;8.580;2022-07-01T12:16:13;21.00;99.90
32787;DHT22;19139;49.372;8.580;2022-07-01T12:18:54;20.90;99.90
32787;DHT22;19139;49.372;8.580;2022-07-01T12:21:27;20.90;99.90
32787;DHT22;19139;49.372;8.580;2022-07-01T12:24:11;20.90;99.90
32787;DHT22;19139;49.372;8.580;2022-07-01T12:32:22;20.70;99.90
32787;DHT22;19139;49.372;8.580;2022-07-01T12:37:20;20.90;99.90
32787;DHT22;19139;49.372;8.580;2022-07-01T12:39:52;20.80;99.90
32787;DHT22;19139;49.372;8.580;2022-07-01T12:42:42;21.00;99.90
32787;DHT22;19139;49.372;8.580;2022-07-01T12:45:12;21.00;99.90
32787;DHT22;19139;49.372;8.580;2022-07-01T12:47:51;21.10;99.90
32787;DHT22;19139;49.372;8.580;2022-07-01T12:50:20;21.60;99.90
32787;DHT22;19139;49.372;8.580;2022-07-01T12:53:01;21.80;99.90
32787;DHT22;19139;49.372;8.580;2022-07-01T12:58:07;21.80;99.90
32787;DHT22;19139;49.372;8.580;2022-07-01T13:00:34;21.90;99.90
32787;DHT22;19139;49.372;8.580;2022-07-01T13:03:02;22.20;99.90
32787;DHT22;19139;49.372;8.580;2022-07-01T13:05:31;22.50;99.90
32787;DHT22;19139;49.372;8.580;2022-07-01T13:07:58;22.60;99.90
32787;DHT22;19139;49.372;8.580;2022-07-01T13:10:25;22.30;99.90
32787;DHT22;19139;49.372;8.580;2022-07-01T13:12:57;22.20;99.90
32787;DHT22;19139;49.372;8.580;2022-07-01T13:15:24;22.00;99.90
32787;DHT22;19139;49.372;8.580;2022-07-01T13:17:56;21.90;99.90
32787;DHT22;19139;49.372;8.580;2022-07-01T13:20:23;21.70;99.90
32787;DHT22;19139;49.372;8.580;2022-07-01T13:22:50;21.60;99.90
32787;DHT22;19139;49.372;8.580;2022-07-01T13:25:16;21.70;99.90
32787;DHT22;19139;49.372;8.580;2022-07-01T13:27:43;21.70;99.90
32787;DHT22;19139;49.372;8.580;2022-07-01T13:30:11;21.60;99.90
32787;DHT22;19139;49.372;8.580;2022-07-01T13:32:38;21.50;99.80
32787;DHT22;19139;49.372;8.580;2022-07-01T13:35:12;21.50;99.90
32787;DHT22;19139;49.372;8.580;2022-07-01T13:37:44;21.60;99.90
32787;DHT22;19139;49.372;8.580;2022-07-01T13:40:11;21.60;99.90
32787;DHT22;19139;49.372;8.580;2022-07-01T13:42:38;21.60;99.90
32787;DHT22;19139;49.372;8.580;2022-07-01T13:45:10;21.60;99.90
32787;DHT22;19139;49.372;8.580;2022-07-01T13:47:37;21.70;99.90
32787;DHT22;19139;49.372;8.580;2022-07-01T13:50:04;21.90;99.90
32787;DHT22;19139;49.372;8.580;2022-07-01T13:52:30;22.00;99.90
32787;DHT22;19139;49.372;8.580;2022-07-01T13:54:58;21.80;99.90
32787;DHT22;19139;49.372;8.580;2022-07-01T13:57:26;21.80;99.90
32787;DHT22;19139;49.372;8.580;2022-07-01T13:59:52;22.10;99.90
32787;DHT22;19139;49.372;8.580;2022-07-01T14:02:20;22.70;99.90
32787;DHT22;19139;49.372;8.580;2022-07-01T14:04:47;23.00;99.90
32787;DHT22;19139;49.372;8.580;2022-07-01T14:07:14;22.80;99.70
32787;DHT22;19139;49.372;8.580;2022-07-01T14:09:46;23.00;99.90
32787;DHT22;19139;49.372;8.580;2022-07-01T14:12:13;23.30;99.90
32787;DHT22;19139;49.372;8.580;2022-07-01T14:14:46;23.50;99.40
32787;DHT22;19139;49.372;8.580;2022-07-01T14:17:14;23.30;98.40
32787;DHT22;19139;49.372;8.580;2022-07-01T14:19:40;23.30;99.90
32787;DHT22;19139;49.372;8.580;2022-07-01T14:22:12;23.40;97.50
32787;DHT22;19139;49.372;8.580;2022-07-01T14:24:44;23.40;96.70
32787;DHT22;19139;49.372;8.580;2022-07-01T14:27:16;23.30;97.80
32787;DHT22;19139;49.372;8.580;2022-07-01T14:29:43;23.50;98.00
32787;DHT22;19139;49.372;8.580;2022-07-01T14:32:09;23.40;97.30
32787;DHT22;19139;49.372;8.580;2022-07-01T14:34:36;23.50;99.10
32787;DHT22;19139;49.372;8.580;2022-07-01T14:37:04;23.70;99.90
32787;DHT22;19139;49.372;8.580;2022-07-01T14:39:30;23.60;97.30
32787;DHT22;19139;49.372;8.580;2022-07-01T14:41:57;23.60;96.60
32787;DHT22;19139;49.372;8.580;2022-07-01T14:44:24;23.90;97.20
32787;DHT22;19139;49.372;8.580;2022-07-01T14:46:50;23.70;96.10
32787;DHT22;19139;49.372;8.580;2022-07-01T14:49:17;23.30;97.30
32787;DHT22;19139;49.372;8.580;2022-07-01T14:51:50;23.00;95.30
32787;DHT22;19139;49.372;8.580;2022-07-01T14:54:17;22.80;97.30
32787;DHT22;19139;49.372;8.580;2022-07-01T14:56:44;22.70;97.40
32787;DHT22;19139;49.372;8.580;2022-07-01T14:59:11;22.50;97.90
32787;DHT22;19139;49.372;8.580;2022-07-01T15:01:38;22.40;98.00
32787;DHT22;19139;49.372;8.580;2022-07-01T15:04:04;22.30;98.40
32787;DHT22;19139;49.372;8.580;2022-07-01T15:06:36;22.20;98.00
32787;DHT22;19139;49.372;8.580;2022-07-01T15:09:03;22.20;97.20
32787;DHT22;19139;49.372;8.580;2022-07-01T15:11:29;22.10;98.00
32787;DHT22;19139;49.372;8.580;2022-07-01T15:13:56;22.10;97.90
32787;DHT22;19139;49.372;8.580;2022-07-01T15:16:23;22.10;98.00
32787;DHT22;19139;49.372;8.580;2022-07-01T15:18:51;22.10;98.20
32787;DHT22;19139;49.372;8.580;2022-07-01T15:21:18;22.10;99.10
32787;DHT22;19139;49.372;8.580;2022-07-01T15:23:50;22.10;99.50
32787;DHT22;19139;49.372;8.580;2022-07-01T15:26:17;22.10;98.10
32787;DHT22;19139;49.372;8.580;2022-07-01T15:28:44;22.20;98.30
32787;DHT22;19139;49.372;8.580;2022-07-01T15:31:16;22.70;99.20
32787;DHT22;19139;49.372;8.580;2022-07-01T15:34:03;23.00;98.40
32787;DHT22;19139;49.372;8.580;2022-07-01T15:36:30;23.10;97.70
32787;DHT22;19139;49.372;8.580;2022-07-01T15:38:57;23.30;97.20
32787;DHT22;19139;49.372;8.580;2022-07-01T15:41:27;23.40;97.30
32787;DHT22;19139;49.372;8.580;2022-07-01T15:43:54;23.40;96.60
32787;DHT22;19139;49.372;8.580;2022-07-01T15:46:20;23.40;96.10
32787;DHT22;19139;49.372;8.580;2022-07-01T15:48:47;23.40;96.50
32787;DHT22;19139;49.372;8.580;2022-07-01T15:51:15;23.50;96.90
32787;DHT22;19139;49.372;8.580;2022-07-01T15:53:42;23.50;96.60
32787;DHT22;19139;49.372;8.580;2022-07-01T15:56:09;23.50;95.60
32787;DHT22;19139;49.372;8.580;2022-07-01T15:58:36;23.60;94.90
32787;DHT22;19139;49.372;8.580;2022-07-01T16:01:02;23.70;94.40
32787;DHT22;19139;49.372;8.580;2022-07-01T16:03:34;23.90;95.00
32787;DHT22;19139;49.372;8.580;2022-07-01T16:06:07;24.20;94.30
32787;DHT22;19139;49.372;8.580;2022-07-01T16:08:35;24.30;93.50
32787;DHT22;19139;49.372;8.580;2022-07-01T16:11:08;24.70;93.80
32787;DHT22;19139;49.372;8.580;2022-07-01T16:13:37;25.10;93.90
32787;DHT22;19139;49.372;8.580;2022-07-01T16:16:06;25.80;93.00
32787;DHT22;19139;49.372;8.580;2022-07-01T16:18:33;25.50;91.00
32787;DHT22;19139;49.372;8.580;2022-07-01T16:21:02;24.80;91.40
32787;DHT22;19139;49.372;8.580;2022-07-01T16:23:33;24.70;93.80